Emmaus, Pennsylvania
Current Conditions -  °F | °C
As of 1:55 AM on Friday 19 Dec 2014 (Local Time) from KXLL Reporting Station
Overcast Overcast  
Wind Chill: 32°   Ceiling: 3100
Heat Index: 36°   Visibility: 10mi
Dew Point: 27°   Wind: 5mph
Humidity: 70%   Direction: 290°WNW
Pressure: 30.02"   Gusts: NA
Location:  40.54°N, 75.49°W
Report Text: KXLL 190655Z AUTO 29004KT 10SM OVC031 02/M03 A3002 RMK AO2
Loading
Personal Weather Stations






























Interactive Weather Map New forecast layout! Learn more

10-Day Weather Forecast

Advertisements
Track Severe Weather on mobile